weather station
Area: 3964 km2
The highest point: Čertův mlýn (1206 m.s.l.)
Total stations: 31
Stations online: 30
Stations offline: 1
Current weather
12°C

Meteorological map - weather stations in Zlínský

. The meteorological maps show weather information from WARIO weather stations

Weather stations Zlínský

 UpdatesNameStatusTemperatureHumidityWind speedWind direction
1.10.2022 13:34Valašské Meziříčí - Brňov12.6 °C95.3 %0.9 m/s E
1.10.2022 13:34Bystřička13.7 °C81.7 %1.2 m/s S
1.10.2022 13:35Dolní Bečva12.5 °C84.4 %0.0 m/s W
1.10.2022 13:34Halenkov12.8 °C77.2 %1.0 m/s SW
1.10.2022 13:35Hošťálková13.0 °C80.3 %1.4 m/s SW
1.10.2022 13:34Kateřinice13.2 °C84.3 %1.6 m/s S
1.10.2022 13:35Kroměříž - Vážany15.1 °C82.8 %3.5 m/s SW
1.10.2022 13:34Kroměříž15.1 °C75.7 %1.7 m/s SW
1.10.2022 13:35Kroměříž16.2 °C60.6 %1.7 m/s W
1.10.2022 13:35Lhota u Vsetína13.8 °C81.9 %2.0 m/s SW
1.10.2022 13:35Liptál-40.0 °C %0.0 m/s NW
1.10.2022 13:35Luhačovice12.7 °C82.4 %1.8 m/s SW
1.10.2022 13:35Holešov13.3 °C100.0 %1.6 m/s W
1.10.2022 13:35Podolí14.5 °C89.8 %1.3 m/s NW
1.10.2022 13:34Vigantice13.2 °C88.9 %1.2 m/s SW
1.10.2022 13:34Vsetín12.7 °C83.2 %2.0 m/s SW
1.10.2022 13:34Horní Lideč12.4 °C84.5 %0.8 m/s W
27.9.2022 17:58Zlín11.2 °C92.1 %0.0 m/s W
1.10.2022 13:35Uherské Hradiště14.1 °C97.1 %2.1 m/s E
1.10.2022 13:35Poličná18.7 °C62.3 %3.9 m/s S
1.10.2022 13:35Zlín16.5 °C63.6 %1.0 m/s N
1.10.2022 13:35Prusinovice14.5 °C89.2 %1.6 m/s SW
1.10.2022 13:34Pržno14.1 °C81.1 %1.6 m/s W
1.10.2022 13:35Rožnov pod Radhoštěm12.5 °C88.6 %0.0 m/s NW
1.10.2022 13:34Ratiboř13.2 °C75.0 %2.4 m/s NW
1.10.2022 13:34Vigantice14.8 °C19.8 %0.1 m/s W
1.10.2022 13:35Růžďka13.4 °C82.5 %0.9 m/s S
1.10.2022 13:35Svatý Hostýn10.4 °C100.0 %2.3 m/s W
1.10.2022 13:35Valašské Meziříčí15.2 °C75.3 %1.8 m/s SW
1.10.2022 13:34Vidče14.2 °C79.0 %1.2 m/s SW
1.10.2022 13:35Zlín13.7 °C88.5 %1.4 m/s SW
Email notifications
Enter your email address to subscribe to notifications about news at warioweather.com. Your email address will not be used for any purpose other than sending these emails and will not be provided to any third party. The subscription can be ended at any time.
All data are only indicative. The portal administrator has no responsibility for potentially incorrect data and related consequences. Publishing or further sharing of content from www.warioweather.com is only allowed with written consent from WANET s.r.o.